LFRN 181730Z AUTO 35007KT 320V020 CAVOK 24/16 Q1016 NOSIG

ElémentsDécodage
LFRN Station météo située sur l'aérodrome de RENNES Saint-Jacques
181730Z émis le 18 du mois à 17h30 UTC
AUTO Bulletin édité par un automate
35007KT vent du 350°, 07 noeuds
320V020 vent de direction variable entre 320° et 020°
CAVOK Ceiling And Visibility OK
- Visibilité de 10 Km ou plus
- Pas de nuage au-dessous de 1500m ou au-dessous de l'altitude minimale du secteur la plus élevée (si>1500m) et absence de CB
- pas de temps présent significatif
24/16 température 24°C, point de rosée 16°C
 soit une humidité relative de 61%
Q1016 la pression au niveau de la mer (QNH) est de 1016 hPa
NOSIG Pas de changement significatif prévu au cours des deux heures suivant l'heure de l'observation